United, Pennsylvania
Current Conditions -  °F | °C
As of 2:15 AM on Sunday 23 Nov 2014 (Local Time) from KLBE Reporting Station
Overcast Overcast  
Wind Chill: 44°   Ceiling: 9500
Heat Index: 48°   Visibility: 10mi
Dew Point: 25°   Wind: 10mph
Humidity: 40%   Direction: 200°SSW
Pressure: 30.12"   Gusts: NA
Location:  40.22°N, 79.49°W
Report Text: KLBE 230715Z AUTO 20009KT 10SM FEW065 SCT070 OVC095 09/M04 A3012 RMK AO2
Loading
Personal Weather Stations






























Interactive Weather Map New forecast layout! Learn more

10-Day Weather Forecast

Advertisements
Track Severe Weather on mobile